createdAt,value
2019-01-15T00:01:01.548Z,100438.29
2019-01-15T00:03:35.720Z,100443.01
2019-01-15T00:06:08.750Z,100441.31
2019-01-15T00:08:42.584Z,100440.13
2019-01-15T00:11:15.425Z,100441.88
2019-01-15T00:13:49.624Z,100447.50
2019-01-15T00:16:25.298Z,100443.17
2019-01-15T00:18:58.289Z,100444.66
2019-01-15T00:21:31.196Z,100444.05
2019-01-15T00:24:04.721Z,100450.45
2019-01-15T00:26:37.588Z,100447.66
2019-01-15T00:29:10.882Z,100447.94
2019-01-15T00:31:45.144Z,100440.61
2019-01-15T00:34:18.260Z,100441.34
2019-01-15T00:36:51.185Z,100441.84
2019-01-15T00:39:24.583Z,100448.28
2019-01-15T00:41:57.528Z,100460.56
2019-01-15T00:44:30.552Z,100462.16
2019-01-15T00:47:04.949Z,100454.83
2019-01-15T00:49:37.985Z,100451.50
2019-01-15T00:52:11.861Z,100443.16
2019-01-15T00:54:46.869Z,100441.77
2019-01-15T00:57:19.757Z,100444.23
2019-01-15T00:59:52.803Z,100438.52
2019-01-15T01:02:26.457Z,100438.03
2019-01-15T01:05:02.834Z,100439.52
2019-01-15T01:07:39.706Z,100438.70
2019-01-15T01:10:15.081Z,100449.88
2019-01-15T01:12:49.484Z,100454.81
2019-01-15T01:15:22.530Z,100461.69
2019-01-15T01:17:55.449Z,100450.02
2019-01-15T01:20:29.055Z,100451.50
2019-01-15T01:23:02.088Z,100453.28
2019-01-15T01:25:35.347Z,100458.75
2019-01-15T01:28:08.797Z,100457.61
2019-01-15T01:30:42.129Z,100457.61
2019-01-15T01:33:14.990Z,100461.17
2019-01-15T01:35:49.895Z,100459.16
2019-01-15T01:38:22.791Z,100467.77
2019-01-15T01:40:55.825Z,100458.84
2019-01-15T01:43:29.188Z,100452.09
2019-01-15T01:46:02.201Z,100460.50
2019-01-15T01:48:35.182Z,100457.66
2019-01-15T01:51:08.554Z,100461.51
2019-01-15T01:53:41.657Z,100461.19
2019-01-15T01:56:14.556Z,100465.51
2019-01-15T01:58:47.984Z,100471.28
2019-01-15T02:01:20.884Z,100465.58
2019-01-15T02:03:53.820Z,100463.05
2019-01-15T02:06:28.339Z,100468.94
2019-01-15T02:09:01.370Z,100476.27
2019-01-15T02:11:34.303Z,100473.43
2019-01-15T02:14:08.299Z,100469.61
2019-01-15T02:16:41.306Z,100467.33
2019-01-15T02:19:14.602Z,100467.61
2019-01-15T02:21:48.368Z,100486.42
2019-01-15T02:24:22.247Z,100491.78
2019-01-15T02:26:55.897Z,100491.61
2019-01-15T02:29:29.338Z,100479.81
2019-01-15T02:32:02.290Z,100478.83
2019-01-15T02:34:35.281Z,100482.73
2019-01-15T02:37:09.483Z,100489.91
2019-01-15T02:39:42.541Z,100482.23
2019-01-15T02:42:15.489Z,100470.20
2019-01-15T02:44:48.705Z,100466.45
2019-01-15T02:47:21.708Z,100466.04
2019-01-15T02:49:54.685Z,100455.94
2019-01-15T02:52:29.337Z,100452.25
2019-01-15T02:55:02.358Z,100442.08
2019-01-15T02:57:35.524Z,100434.96
2019-01-15T03:00:16.491Z,100435.78
2019-01-15T03:02:49.482Z,100441.58
2019-01-15T03:05:22.678Z,100440.47
2019-01-15T03:07:56.284Z,100445.29
2019-01-15T03:10:29.602Z,100451.17
2019-01-15T03:13:02.648Z,100450.95
2019-01-15T03:15:36.016Z,100455.80
2019-01-15T03:18:09.211Z,100452.03
2019-01-15T03:20:42.205Z,100446.24
2019-01-15T03:23:15.821Z,100439.35
2019-01-15T03:25:48.845Z,100440.28
2019-01-15T03:28:21.932Z,100424.20
2019-01-15T03:30:55.360Z,100431.54
2019-01-15T03:33:28.307Z,100435.47
2019-01-15T03:36:01.360Z,100427.15
2019-01-15T03:38:34.925Z,100418.47
2019-01-15T03:41:07.904Z,100419.80
2019-01-15T03:43:40.945Z,100422.05
2019-01-15T03:46:14.273Z,100417.44
2019-01-15T03:48:47.268Z,100413.92
2019-01-15T03:51:20.524Z,100419.73
2019-01-15T03:53:54.056Z,100423.62
2019-01-15T03:56:27.050Z,100430.36
2019-01-15T03:59:00.078Z,100422.64
2019-01-15T04:01:35.555Z,100429.56
2019-01-15T04:04:08.700Z,100421.03
2019-01-15T04:06:41.525Z,100416.96
2019-01-15T04:09:14.759Z,100414.70
2019-01-15T04:11:48.047Z,100405.23
2019-01-15T04:14:20.931Z,100402.17
2019-01-15T04:16:54.269Z,100400.92
2019-01-15T04:19:27.335Z,100397.52
2019-01-15T04:22:00.272Z,100397.77
2019-01-15T04:24:33.707Z,100393.97
2019-01-15T04:27:06.675Z,100398.62
2019-01-15T04:29:39.973Z,100396.78
2019-01-15T04:32:13.432Z,100401.16
2019-01-15T04:34:46.711Z,100399.45
2019-01-15T04:37:19.552Z,100396.45
2019-01-15T04:39:54.001Z,100388.20
2019-01-15T04:42:27.221Z,100386.13
2019-01-15T04:45:00.268Z,100377.17
2019-01-15T04:47:36.630Z,100374.39
2019-01-15T04:50:10.110Z,100377.52
2019-01-15T04:52:45.064Z,100377.92
2019-01-15T04:55:18.279Z,100373.73
2019-01-15T04:57:51.652Z,100371.53
2019-01-15T05:00:24.780Z,100372.46
2019-01-15T05:03:01.881Z,100368.02
2019-01-15T05:05:35.206Z,100370.83
2019-01-15T05:08:08.539Z,100364.54
2019-01-15T05:10:42.521Z,100364.16
2019-01-15T05:13:27.318Z,100361.50
2019-01-15T05:16:02.277Z,100361.86
2019-01-15T05:18:35.213Z,100364.38
2019-01-15T05:21:08.888Z,100354.56
2019-01-15T05:23:41.843Z,100353.84
2019-01-15T05:26:14.712Z,100351.33
2019-01-15T05:28:48.223Z,100356.33
2019-01-15T05:31:21.160Z,100348.73
2019-01-15T05:33:54.217Z,100346.33
2019-01-15T05:36:27.620Z,100359.13
2019-01-15T05:39:00.780Z,100357.42
2019-01-15T05:41:33.746Z,100357.69
2019-01-15T05:44:07.331Z,100362.69
2019-01-15T05:46:40.338Z,100360.72
2019-01-15T05:49:13.332Z,100360.92
2019-01-15T05:51:46.706Z,100353.76
2019-01-15T05:54:19.817Z,100349.95
2019-01-15T05:56:53.508Z,100351.91
2019-01-15T05:59:26.859Z,100346.92
2019-01-15T06:01:59.946Z,100349.13
2019-01-15T06:04:32.884Z,100335.91
2019-01-15T06:07:06.420Z,100333.76
2019-01-15T06:09:40.132Z,100336.47
2019-01-15T06:12:14.044Z,100330.52
2019-01-15T06:14:47.357Z,100329.55
2019-01-15T06:17:20.388Z,100327.74
2019-01-15T06:19:53.651Z,100328.87
2019-01-15T06:22:27.101Z,100329.83
2019-01-15T06:25:00.440Z,100328.24
2019-01-15T06:27:33.653Z,100320.45
2019-01-15T06:30:13.567Z,100319.22
2019-01-15T06:32:46.395Z,100312.70
2019-01-15T06:35:19.774Z,100316.45
2019-01-15T06:37:53.016Z,100311.16
2019-01-15T06:40:26.116Z,100312.39
2019-01-15T06:42:58.974Z,100317.66
2019-01-15T06:45:32.134Z,100317.41
2019-01-15T06:48:05.211Z,100322.44
2019-01-15T06:50:38.281Z,100321.30
2019-01-15T06:53:11.203Z,100311.05
2019-01-15T06:55:44.140Z,100314.22
2019-01-15T06:58:19.384Z,100310.16
2019-01-15T07:00:52.865Z,100319.23
2019-01-15T07:03:26.301Z,100317.87
2019-01-15T07:05:59.853Z,100310.30
2019-01-15T07:08:34.096Z,100311.25
2019-01-15T07:11:07.208Z,100315.46
2019-01-15T07:13:40.186Z,100314.02
2019-01-15T07:16:14.940Z,100329.69
2019-01-15T07:18:47.840Z,100316.38
2019-01-15T07:21:20.991Z,100322.58
2019-01-15T07:23:54.911Z,100326.08
2019-01-15T07:26:27.999Z,100326.81
2019-01-15T07:29:00.969Z,100330.33
2019-01-15T07:31:34.578Z,100334.26
2019-01-15T07:34:09.160Z,100332.11
2019-01-15T07:36:42.230Z,100331.52
2019-01-15T07:39:15.660Z,100323.50
2019-01-15T07:41:48.889Z,100319.72
2019-01-15T07:44:21.720Z,100320.47
2019-01-15T07:46:56.290Z,100317.10
2019-01-15T07:49:29.645Z,100316.97
2019-01-15T07:52:02.773Z,100321.72
2019-01-15T07:54:37.080Z,100323.21
2019-01-15T07:57:10.388Z,100311.28
2019-01-15T07:59:43.580Z,100317.39
2019-01-15T08:02:17.400Z,100314.73
2019-01-15T08:04:50.344Z,100310.74
2019-01-15T08:07:24.627Z,100311.84
2019-01-15T08:09:59.904Z,100309.98
2019-01-15T08:12:34.160Z,100307.56
2019-01-15T08:15:10.180Z,100306.02
2019-01-15T08:17:49.253Z,100296.53
2019-01-15T08:20:25.175Z,100298.89
2019-01-15T08:22:58.642Z,100300.22
2019-01-15T08:25:33.392Z,100300.76
2019-01-15T08:28:06.761Z,100304.77
2019-01-15T08:30:41.967Z,100310.55
2019-01-15T08:33:15.300Z,100305.64
2019-01-15T08:35:48.392Z,100290.90
2019-01-15T08:38:21.727Z,100290.75
2019-01-15T08:40:54.756Z,100296.63
2019-01-15T08:43:28.401Z,100305.20
2019-01-15T08:46:01.932Z,100310.67
2019-01-15T08:48:36.408Z,100302.88
2019-01-15T08:51:10.706Z,100304.75
2019-01-15T08:53:44.598Z,100296.48
2019-01-15T08:56:18.096Z,100292.27
2019-01-15T08:58:51.469Z,100296.77
2019-01-15T09:01:24.343Z,100302.45
2019-01-15T09:03:57.356Z,100302.29
2019-01-15T09:06:31.612Z,100311.42
2019-01-15T09:09:08.603Z,100315.16
2019-01-15T09:11:41.893Z,100316.62
2019-01-15T09:14:14.833Z,100324.11
2019-01-15T09:16:48.712Z,100320.13
2019-01-15T09:19:23.672Z,100317.69
2019-01-15T09:21:56.680Z,100310.76
2019-01-15T09:24:32.383Z,100317.08
2019-01-15T09:27:06.204Z,100316.38
2019-01-15T09:29:39.357Z,100314.70
2019-01-15T09:32:14.020Z,100311.73
2019-01-15T09:34:47.205Z,100325.13
2019-01-15T09:37:20.847Z,100321.86
2019-01-15T09:39:54.622Z,100320.48
2019-01-15T09:42:28.272Z,100321.38
2019-01-15T09:45:02.935Z,100320.85
2019-01-15T09:47:40.488Z,100321.73
2019-01-15T09:50:14.333Z,100319.08
2019-01-15T09:52:47.249Z,100314.56
2019-01-15T09:55:20.691Z,100318.85
2019-01-15T09:57:56.240Z,100312.96
2019-01-15T10:00:29.300Z,100319.69
2019-01-15T10:03:03.178Z,100315.27
2019-01-15T10:05:36.413Z,100314.34
2019-01-15T10:08:09.336Z,100313.25
2019-01-15T10:10:43.650Z,100308.27
2019-01-15T10:13:16.733Z,100311.35
2019-01-15T10:15:50.723Z,100310.93
2019-01-15T10:18:23.834Z,100302.16
2019-01-15T10:20:56.898Z,100295.20
2019-01-15T10:23:30.293Z,100288.92
2019-01-15T10:26:03.410Z,100289.34
2019-01-15T10:28:36.439Z,100276.03
2019-01-15T10:32:02.425Z,100276.09
2019-01-15T10:34:46.073Z,100268.20
2019-01-15T10:37:19.191Z,100267.09
2019-01-15T10:39:53.577Z,100271.00
2019-01-15T10:42:26.874Z,100263.95
2019-01-15T10:44:59.948Z,100258.16
2019-01-15T10:47:36.397Z,100262.05
2019-01-15T10:50:14.880Z,100260.77
2019-01-15T10:52:48.111Z,100259.61
2019-01-15T10:55:21.031Z,100266.49
2019-01-15T10:57:54.699Z,100258.98
2019-01-15T11:00:27.663Z,100257.45
2019-01-15T11:03:00.664Z,100259.19
2019-01-15T11:05:35.377Z,100258.33
2019-01-15T11:08:10.475Z,100249.34
2019-01-15T11:10:45.208Z,100255.94
2019-01-15T11:13:19.854Z,100242.72
2019-01-15T11:16:07.065Z,100242.93
2019-01-15T11:18:40.090Z,100247.78
2019-01-15T11:21:13.092Z,100243.51
2019-01-15T11:23:46.660Z,100248.44
2019-01-15T11:26:19.652Z,100245.76
2019-01-15T11:28:52.671Z,100243.11
2019-01-15T11:31:26.743Z,100241.00
2019-01-15T11:34:00.094Z,100238.03
2019-01-15T11:36:33.123Z,100243.10
2019-01-15T11:39:11.416Z,100243.89
2019-01-15T11:41:44.892Z,100234.03
2019-01-15T11:44:22.784Z,100232.17
2019-01-15T11:46:56.685Z,100229.39
2019-01-15T11:49:30.804Z,100229.32
2019-01-15T11:52:04.399Z,100221.53
2019-01-15T11:54:37.784Z,100212.23
2019-01-15T11:57:11.301Z,100219.81
2019-01-15T11:59:44.513Z,100218.44
2019-01-15T12:02:26.307Z,100212.31
2019-01-15T12:05:11.854Z,100214.23
2019-01-15T12:07:51.234Z,100212.59
2019-01-15T12:10:44.063Z,100207.81
2019-01-15T12:13:23.027Z,100204.17
2019-01-15T12:16:09.620Z,100199.83
2019-01-15T12:18:59.376Z,100203.66
2019-01-15T12:21:39.749Z,100199.05
2019-01-15T12:24:37.796Z,100197.68
2019-01-15T12:27:21.062Z,100192.50
2019-01-15T12:30:00.174Z,100193.73
2019-01-15T12:32:40.036Z,100188.86
2019-01-15T12:35:23.144Z,100191.45
2019-01-15T12:38:11.878Z,100186.59
2019-01-15T12:41:03.647Z,100189.48
2019-01-15T12:43:42.954Z,100184.45
2019-01-15T12:46:21.504Z,100180.48
2019-01-15T12:49:03.177Z,100185.16
2019-01-15T12:51:42.185Z,100180.23
2019-01-15T12:54:37.106Z,100173.38
2019-01-15T12:57:40.501Z,100175.03
2019-01-15T13:00:29.574Z,100169.91
2019-01-15T13:03:23.764Z,100169.11
2019-01-15T13:06:21.142Z,100161.36
2019-01-15T13:09:00.697Z,100163.34
2019-01-15T13:11:40.972Z,100156.62
2019-01-15T13:14:24.556Z,100158.20
2019-01-15T13:17:20.232Z,100165.77
2019-01-15T13:20:14.601Z,100157.99
2019-01-15T13:22:53.666Z,100159.06
2019-01-15T13:25:39.977Z,100150.53
2019-01-15T13:28:29.049Z,100154.45
2019-01-15T13:31:08.193Z,100144.38
2019-01-15T13:33:50.264Z,100147.25
2019-01-15T13:36:36.268Z,100152.30
2019-01-15T13:39:26.984Z,100151.52
2019-01-15T13:42:16.100Z,100140.66
2019-01-15T13:45:50.806Z,100145.97
2019-01-15T13:48:41.872Z,100141.12
2019-01-15T13:51:37.396Z,100158.91
2019-01-15T13:54:36.518Z,100138.05
2019-01-15T13:57:33.145Z,100143.95
2019-01-15T14:00:23.017Z,100144.38
2019-01-15T14:03:04.788Z,100144.90
2019-01-15T14:05:56.160Z,100145.21
2019-01-15T14:08:40.678Z,100143.70
2019-01-15T14:11:24.817Z,100148.20
2019-01-15T14:14:04.817Z,100141.70
2019-01-15T14:16:58.665Z,100147.23
2019-01-15T14:19:39.808Z,100143.14
2019-01-15T14:22:39.863Z,100144.09
2019-01-15T14:25:33.433Z,100142.97
2019-01-15T14:28:31.098Z,100141.98
2019-01-15T14:31:23.829Z,100141.23
2019-01-15T14:34:03.475Z,100137.42
2019-01-15T14:36:46.450Z,100137.93
2019-01-15T14:39:35.278Z,100134.81
2019-01-15T14:42:14.397Z,100133.63
2019-01-15T14:45:08.089Z,100134.64
2019-01-15T14:48:11.382Z,100133.95
2019-01-15T14:51:10.577Z,100130.26
2019-01-15T14:54:13.308Z,100134.12
2019-01-15T14:57:05.910Z,100131.52
2019-01-15T14:59:49.753Z,100124.59
2019-01-15T15:02:44.242Z,100124.45
2019-01-15T15:05:37.707Z,100128.10
2019-01-15T15:08:17.647Z,100125.27
2019-01-15T15:11:04.153Z,100115.76
2019-01-15T15:13:53.873Z,100118.96
2019-01-15T15:16:48.227Z,100117.48
2019-01-15T15:19:32.684Z,100124.77
2019-01-15T15:22:31.274Z,100129.84
2019-01-15T15:25:18.007Z,100127.33
2019-01-15T15:28:11.857Z,100123.20
2019-01-15T15:31:02.576Z,100125.91
2019-01-15T15:33:45.743Z,100125.64
2019-01-15T15:36:25.294Z,100118.28
2019-01-15T15:39:17.989Z,100120.38
2019-01-15T15:42:21.668Z,100117.95
2019-01-15T15:45:15.150Z,100118.17
2019-01-15T15:48:10.460Z,100119.94
2019-01-15T15:50:49.317Z,100115.95
2019-01-15T15:53:35.069Z,100122.58
2019-01-15T15:56:34.485Z,100119.78
2019-01-15T15:59:22.208Z,100121.49
2019-01-15T16:02:12.810Z,100114.52
2019-01-15T16:05:00.956Z,100118.63
2019-01-15T16:07:39.683Z,100124.80
2019-01-15T16:10:21.523Z,100113.78
2019-01-15T16:13:04.691Z,100116.30
2019-01-15T16:15:55.668Z,100114.77
2019-01-15T16:18:49.374Z,100112.67
2019-01-15T16:21:39.494Z,100110.64
2019-01-15T16:24:25.271Z,100109.94
2019-01-15T16:27:19.129Z,100110.38
2019-01-15T16:29:58.490Z,100106.91
2019-01-15T16:32:38.767Z,100110.69
2019-01-15T16:35:26.944Z,100103.88
2019-01-15T16:38:05.458Z,100099.62
2019-01-15T16:40:55.634Z,100100.61
2019-01-15T16:43:40.842Z,100099.42
2019-01-15T16:46:34.208Z,100100.23
2019-01-15T16:49:32.331Z,100098.20
2019-01-15T16:52:25.465Z,100101.87
2019-01-15T16:55:22.390Z,100106.73
2019-01-15T16:58:29.784Z,100107.64
2019-01-15T17:01:40.351Z,100106.59
2019-01-15T17:04:45.802Z,100109.42
2019-01-15T17:07:54.843Z,100107.98
2019-01-15T17:10:49.529Z,100104.16
2019-01-15T17:13:43.201Z,100101.23
2019-01-15T17:16:44.421Z,100096.44
2019-01-15T17:19:35.555Z,100098.30
2019-01-15T17:22:22.924Z,100100.48
2019-01-15T17:25:08.711Z,100099.64
2019-01-15T17:27:51.013Z,100102.43
2019-01-15T17:30:44.968Z,100099.72
2019-01-15T17:33:39.654Z,100104.34
2019-01-15T17:36:39.676Z,100103.52
2019-01-15T17:39:36.028Z,100102.33
2019-01-15T17:42:25.790Z,100103.37
2019-01-15T17:45:04.280Z,100098.23
2019-01-15T17:48:00.032Z,100108.09
2019-01-15T17:50:56.770Z,100102.76
2019-01-15T17:53:37.845Z,100103.87
2019-01-15T17:56:32.035Z,100096.32
2019-01-15T17:59:31.644Z,100097.21
2019-01-15T18:02:32.275Z,100096.05
2019-01-15T18:05:26.845Z,100098.25
2019-01-15T18:08:21.262Z,100095.72
2019-01-15T18:11:00.578Z,100099.82
2019-01-15T18:13:39.329Z,100091.47
2019-01-15T18:16:18.430Z,100094.28
2019-01-15T18:19:12.500Z,100094.13
2019-01-15T18:21:52.265Z,100093.17
2019-01-15T18:24:35.310Z,100098.15
2019-01-15T18:27:28.967Z,100096.52
2019-01-15T18:30:27.421Z,100078.78
2019-01-15T18:33:23.404Z,100090.39
2019-01-15T18:36:17.256Z,100082.13
2019-01-15T18:39:04.577Z,100086.08
2019-01-15T18:41:43.203Z,100081.84
2019-01-15T18:44:37.591Z,100086.40
2019-01-15T18:47:46.821Z,100083.39
2019-01-15T18:50:39.574Z,100086.28
2019-01-15T18:53:34.987Z,100085.77
2019-01-15T18:56:29.480Z,100083.30
2019-01-15T18:59:25.198Z,100077.46
2019-01-15T19:02:04.894Z,100076.17
2019-01-15T19:04:57.594Z,100071.65
2019-01-15T19:07:36.930Z,100072.66
2019-01-15T19:10:16.132Z,100066.25
2019-01-15T19:12:54.988Z,100070.87
2019-01-15T19:15:47.638Z,100070.33
2019-01-15T19:18:38.569Z,100073.66
2019-01-15T19:21:32.519Z,100065.94
2019-01-15T19:24:11.405Z,100067.54
2019-01-15T19:27:05.939Z,100068.08
2019-01-15T19:29:56.480Z,100063.50
2019-01-15T19:32:35.064Z,100067.36
2019-01-15T19:35:16.077Z,100061.56
2019-01-15T19:38:04.159Z,100068.75
2019-01-15T19:40:43.025Z,100067.91
2019-01-15T19:43:39.025Z,100066.92
2019-01-15T19:46:33.308Z,100069.12
2019-01-15T19:49:17.668Z,100067.02
2019-01-15T19:52:03.188Z,100070.06
2019-01-15T19:54:59.660Z,100064.94
2019-01-15T19:57:48.956Z,100063.16
2019-01-15T20:00:27.438Z,100064.97
2019-01-15T20:03:08.237Z,100063.11
2019-01-15T20:05:47.809Z,100060.63
2019-01-15T20:08:28.536Z,100060.12
2019-01-15T20:11:07.886Z,100062.97
2019-01-15T20:13:59.337Z,100065.40
2019-01-15T20:16:53.484Z,100063.80
2019-01-15T20:20:02.013Z,100066.33
2019-01-15T20:23:14.616Z,100070.56
2019-01-15T20:26:07.782Z,100065.38
2019-01-15T20:29:09.333Z,100064.41
2019-01-15T20:32:01.892Z,100059.06
2019-01-15T20:34:56.581Z,100054.44
2019-01-15T20:37:53.731Z,100055.05
2019-01-15T20:40:37.216Z,100057.76
2019-01-15T20:43:24.903Z,100056.59
2019-01-15T20:46:18.572Z,100065.91
2019-01-15T20:49:26.574Z,100057.70
2019-01-15T20:52:06.730Z,100057.45
2019-01-15T20:54:54.871Z,100059.48
2019-01-15T20:57:50.599Z,100056.80
2019-01-15T21:00:38.739Z,100057.96
2019-01-15T21:03:17.179Z,100051.66
2019-01-15T21:06:08.169Z,100068.69
2019-01-15T21:08:58.627Z,100054.43
2019-01-15T21:11:37.224Z,100053.11
2019-01-15T21:14:15.629Z,100052.67
2019-01-15T21:17:06.702Z,100051.45
2019-01-15T21:20:06.934Z,100046.77
2019-01-15T21:22:59.989Z,100050.28
2019-01-15T21:25:38.334Z,100057.16
2019-01-15T21:28:32.173Z,100057.88
2019-01-15T21:31:39.898Z,100048.68
2019-01-15T21:34:29.374Z,100056.72
2019-01-15T21:37:07.754Z,100062.07
2019-01-15T21:39:51.496Z,100056.63
2019-01-15T21:42:44.144Z,100055.51
2019-01-15T21:45:41.912Z,100057.59
2019-01-15T21:48:52.177Z,100052.98
2019-01-15T21:51:58.746Z,100056.62
2019-01-15T21:54:58.564Z,100054.41
2019-01-15T21:57:49.246Z,100049.12
2019-01-15T22:00:28.909Z,100048.30
2019-01-15T22:03:11.523Z,100047.14
2019-01-15T22:05:57.930Z,100042.89
2019-01-15T22:08:59.478Z,100035.23
2019-01-15T22:11:47.669Z,100035.24
2019-01-15T22:14:27.271Z,100040.46
2019-01-15T22:17:09.572Z,100038.48
2019-01-15T22:19:55.059Z,100033.85
2019-01-15T22:22:51.809Z,100037.36
2019-01-15T22:25:55.929Z,100026.97
2019-01-15T22:28:48.728Z,100018.48
2019-01-15T22:31:30.966Z,100019.80
2019-01-15T22:34:26.284Z,100012.53
2019-01-15T22:37:14.019Z,100016.73
2019-01-15T22:39:54.866Z,100016.72
2019-01-15T22:42:41.691Z,100009.76
2019-01-15T22:45:41.814Z,100000.73
2019-01-15T22:48:21.832Z,100002.92
2019-01-15T22:51:15.539Z,99995.04
2019-01-15T22:54:05.452Z,99992.66
2019-01-15T22:57:03.906Z,99989.62
2019-01-15T22:59:50.002Z,99986.66
2019-01-15T23:02:48.386Z,99980.16
2019-01-15T23:05:41.646Z,99982.91
2019-01-15T23:08:21.358Z,99978.55
2019-01-15T23:11:15.883Z,99986.04
2019-01-15T23:14:03.287Z,99975.80
2019-01-15T23:16:44.182Z,99985.41
2019-01-15T23:19:24.971Z,99971.90
2019-01-15T23:22:07.776Z,99972.90
2019-01-15T23:25:02.259Z,99972.79
2019-01-15T23:27:53.048Z,99974.70
2019-01-15T23:30:42.397Z,99971.80
2019-01-15T23:33:34.489Z,99969.65
2019-01-15T23:36:18.315Z,99973.79
2019-01-15T23:38:57.035Z,99971.82
2019-01-15T23:41:55.615Z,99971.05
2019-01-15T23:44:48.595Z,99965.87
2019-01-15T23:47:42.144Z,99972.21
2019-01-15T23:50:44.217Z,99960.31
2019-01-15T23:53:39.730Z,99953.93
2019-01-15T23:56:32.178Z,99955.86
2019-01-15T23:59:18.800Z,99951.01
